sensor_id;sensor_type;location;lat;lon;timestamp;P1;durP1;ratioP1;P2;durP2;ratioP2
43449;SDS011;29041;42.266;23.110;2023-04-09T00:00:59;6.53;;;4.28;;
43449;SDS011;29041;42.266;23.110;2023-04-09T00:03:46;6.75;;;3.45;;
43449;SDS011;29041;42.266;23.110;2023-04-09T00:06:33;6.28;;;3.58;;
43449;SDS011;29041;42.266;23.110;2023-04-09T00:09:20;4.28;;;2.85;;
43449;SDS011;29041;42.266;23.110;2023-04-09T00:12:07;5.10;;;3.40;;
43449;SDS011;29041;42.266;23.110;2023-04-09T00:14:55;5.32;;;3.65;;
43449;SDS011;29041;42.266;23.110;2023-04-09T00:17:42;10.27;;;3.60;;
43449;SDS011;29041;42.266;23.110;2023-04-09T00:20:29;8.00;;;4.10;;
43449;SDS011;29041;42.266;23.110;2023-04-09T00:23:18;7.75;;;5.38;;
43449;SDS011;29041;42.266;23.110;2023-04-09T00:26:05;9.05;;;3.88;;
43449;SDS011;29041;42.266;23.110;2023-04-09T00:28:52;6.60;;;3.85;;
43449;SDS011;29041;42.266;23.110;2023-04-09T00:31:45;9.55;;;4.97;;
43449;SDS011;29041;42.266;23.110;2023-04-09T00:34:32;10.52;;;5.03;;
43449;SDS011;29041;42.266;23.110;2023-04-09T00:37:19;7.13;;;4.63;;
43449;SDS011;29041;42.266;23.110;2023-04-09T00:40:06;9.15;;;4.88;;
43449;SDS011;29041;42.266;23.110;2023-04-09T00:42:53;8.23;;;4.32;;
43449;SDS011;29041;42.266;23.110;2023-04-09T00:45:40;9.55;;;5.10;;
43449;SDS011;29041;42.266;23.110;2023-04-09T00:48:30;5.28;;;3.60;;
43449;SDS011;29041;42.266;23.110;2023-04-09T00:51:17;8.80;;;3.97;;
43449;SDS011;29041;42.266;23.110;2023-04-09T00:54:04;6.03;;;3.80;;
43449;SDS011;29041;42.266;23.110;2023-04-09T00:56:51;5.63;;;3.55;;
43449;SDS011;29041;42.266;23.110;2023-04-09T00:59:38;11.70;;;3.95;;
43449;SDS011;29041;42.266;23.110;2023-04-09T01:02:25;5.03;;;2.97;;
43449;SDS011;29041;42.266;23.110;2023-04-09T01:05:13;6.40;;;3.05;;
43449;SDS011;29041;42.266;23.110;2023-04-09T01:08:02;6.18;;;3.53;;
43449;SDS011;29041;42.266;23.110;2023-04-09T01:10:51;7.50;;;4.20;;
43449;SDS011;29041;42.266;23.110;2023-04-09T01:13:41;6.82;;;3.65;;
43449;SDS011;29041;42.266;23.110;2023-04-09T01:16:29;6.50;;;3.53;;
43449;SDS011;29041;42.266;23.110;2023-04-09T01:19:20;10.00;;;4.55;;
43449;SDS011;29041;42.266;23.110;2023-04-09T01:22:22;6.22;;;3.38;;
43449;SDS011;29041;42.266;23.110;2023-04-09T01:25:12;6.78;;;4.22;;
43449;SDS011;29041;42.266;23.110;2023-04-09T01:31:12;6.35;;;3.92;;
43449;SDS011;29041;42.266;23.110;2023-04-09T01:34:00;9.20;;;4.55;;
43449;SDS011;29041;42.266;23.110;2023-04-09T01:36:49;7.38;;;4.43;;
43449;SDS011;29041;42.266;23.110;2023-04-09T01:39:37;7.72;;;4.32;;
43449;SDS011;29041;42.266;23.110;2023-04-09T01:42:24;7.43;;;3.97;;
43449;SDS011;29041;42.266;23.110;2023-04-09T01:45:11;8.82;;;4.25;;
43449;SDS011;29041;42.266;23.110;2023-04-09T01:48:01;5.78;;;3.90;;
43449;SDS011;29041;42.266;23.110;2023-04-09T01:50:49;5.47;;;3.30;;
43449;SDS011;29041;42.266;23.110;2023-04-09T01:53:38;6.50;;;3.47;;
43449;SDS011;29041;42.266;23.110;2023-04-09T01:56:25;7.22;;;4.65;;
43449;SDS011;29041;42.266;23.110;2023-04-09T01:59:12;8.07;;;4.50;;
43449;SDS011;29041;42.266;23.110;2023-04-09T02:02:00;6.18;;;3.72;;
43449;SDS011;29041;42.266;23.110;2023-04-09T02:04:53;8.20;;;3.85;;
43449;SDS011;29041;42.266;23.110;2023-04-09T02:07:44;9.40;;;5.13;;
43449;SDS011;29041;42.266;23.110;2023-04-09T02:10:36;8.18;;;4.45;;
43449;SDS011;29041;42.266;23.110;2023-04-09T02:13:24;9.38;;;4.78;;
43449;SDS011;29041;42.266;23.110;2023-04-09T02:16:11;9.13;;;4.38;;
43449;SDS011;29041;42.266;23.110;2023-04-09T02:19:00;8.68;;;4.93;;
43449;SDS011;29041;42.266;23.110;2023-04-09T02:21:48;7.25;;;4.57;;
43449;SDS011;29041;42.266;23.110;2023-04-09T02:24:35;7.30;;;3.95;;
43449;SDS011;29041;42.266;23.110;2023-04-09T02:27:22;7.85;;;3.63;;
43449;SDS011;29041;42.266;23.110;2023-04-09T02:30:08;7.82;;;4.38;;
43449;SDS011;29041;42.266;23.110;2023-04-09T02:32:55;9.20;;;4.28;;
43449;SDS011;29041;42.266;23.110;2023-04-09T02:35:42;8.02;;;4.57;;
43449;SDS011;29041;42.266;23.110;2023-04-09T02:38:31;8.20;;;4.30;;
43449;SDS011;29041;42.266;23.110;2023-04-09T02:41:18;6.88;;;3.72;;
43449;SDS011;29041;42.266;23.110;2023-04-09T02:44:05;7.57;;;4.93;;
43449;SDS011;29041;42.266;23.110;2023-04-09T02:46:52;9.38;;;4.68;;
43449;SDS011;29041;42.266;23.110;2023-04-09T02:49:39;7.78;;;4.97;;
43449;SDS011;29041;42.266;23.110;2023-04-09T02:52:29;7.85;;;4.47;;
43449;SDS011;29041;42.266;23.110;2023-04-09T02:55:18;7.07;;;5.05;;
43449;SDS011;29041;42.266;23.110;2023-04-09T02:58:05;10.23;;;4.80;;
43449;SDS011;29041;42.266;23.110;2023-04-09T03:00:52;8.48;;;5.95;;
43449;SDS011;29041;42.266;23.110;2023-04-09T03:03:40;6.85;;;4.35;;
43449;SDS011;29041;42.266;23.110;2023-04-09T03:06:29;8.80;;;5.30;;
43449;SDS011;29041;42.266;23.110;2023-04-09T03:09:20;10.23;;;4.90;;
43449;SDS011;29041;42.266;23.110;2023-04-09T03:12:13;10.10;;;5.38;;
43449;SDS011;29041;42.266;23.110;2023-04-09T03:15:00;9.98;;;5.25;;
43449;SDS011;29041;42.266;23.110;2023-04-09T03:17:47;10.23;;;5.82;;
43449;SDS011;29041;42.266;23.110;2023-04-09T03:20:36;10.73;;;4.95;;
43449;SDS011;29041;42.266;23.110;2023-04-09T03:23:23;15.85;;;7.15;;
43449;SDS011;29041;42.266;23.110;2023-04-09T03:26:10;9.27;;;4.78;;
43449;SDS011;29041;42.266;23.110;2023-04-09T03:28:59;9.02;;;5.63;;
43449;SDS011;29041;42.266;23.110;2023-04-09T03:31:46;12.00;;;6.43;;
43449;SDS011;29041;42.266;23.110;2023-04-09T03:34:32;12.73;;;5.47;;
43449;SDS011;29041;42.266;23.110;2023-04-09T03:37:19;18.33;;;8.23;;
43449;SDS011;29041;42.266;23.110;2023-04-09T03:40:08;16.77;;;7.30;;
43449;SDS011;29041;42.266;23.110;2023-04-09T03:42:55;24.83;;;7.97;;
43449;SDS011;29041;42.266;23.110;2023-04-09T03:45:43;20.77;;;9.20;;
43449;SDS011;29041;42.266;23.110;2023-04-09T03:48:30;24.70;;;6.80;;
43449;SDS011;29041;42.266;23.110;2023-04-09T03:51:19;20.30;;;7.72;;
43449;SDS011;29041;42.266;23.110;2023-04-09T03:54:07;13.20;;;6.20;;
43449;SDS011;29041;42.266;23.110;2023-04-09T03:56:55;16.90;;;7.55;;
43449;SDS011;29041;42.266;23.110;2023-04-09T03:59:42;11.30;;;5.93;;
43449;SDS011;29041;42.266;23.110;2023-04-09T04:02:31;12.40;;;6.70;;
43449;SDS011;29041;42.266;23.110;2023-04-09T04:05:18;11.68;;;6.78;;
43449;SDS011;29041;42.266;23.110;2023-04-09T04:08:05;11.88;;;6.75;;
43449;SDS011;29041;42.266;23.110;2023-04-09T04:10:51;15.75;;;7.47;;
43449;SDS011;29041;42.266;23.110;2023-04-09T04:13:38;12.43;;;6.65;;
43449;SDS011;29041;42.266;23.110;2023-04-09T04:16:26;14.25;;;7.60;;
43449;SDS011;29041;42.266;23.110;2023-04-09T04:19:15;16.05;;;7.47;;
43449;SDS011;29041;42.266;23.110;2023-04-09T04:22:01;15.75;;;7.63;;
43449;SDS011;29041;42.266;23.110;2023-04-09T04:24:48;24.20;;;8.80;;
43449;SDS011;29041;42.266;23.110;2023-04-09T04:27:35;13.43;;;7.22;;
43449;SDS011;29041;42.266;23.110;2023-04-09T04:30:24;14.98;;;7.32;;
43449;SDS011;29041;42.266;23.110;2023-04-09T04:33:11;32.33;;;12.45;;
43449;SDS011;29041;42.266;23.110;2023-04-09T04:36:04;14.85;;;8.85;;
43449;SDS011;29041;42.266;23.110;2023-04-09T04:38:52;59.47;;;23.40;;
43449;SDS011;29041;42.266;23.110;2023-04-09T04:41:39;22.92;;;11.13;;
43449;SDS011;29041;42.266;23.110;2023-04-09T04:44:26;20.45;;;9.88;;
43449;SDS011;29041;42.266;23.110;2023-04-09T04:47:13;30.52;;;12.25;;
43449;SDS011;29041;42.266;23.110;2023-04-09T04:50:00;21.80;;;10.07;;
43449;SDS011;29041;42.266;23.110;2023-04-09T04:52:48;20.27;;;9.23;;
43449;SDS011;29041;42.266;23.110;2023-04-09T04:55:35;21.50;;;9.68;;
43449;SDS011;29041;42.266;23.110;2023-04-09T04:58:23;20.48;;;10.07;;
43449;SDS011;29041;42.266;23.110;2023-04-09T05:01:10;25.02;;;10.93;;
43449;SDS011;29041;42.266;23.110;2023-04-09T05:03:57;19.52;;;10.40;;
43449;SDS011;29041;42.266;23.110;2023-04-09T05:06:44;14.57;;;8.65;;
43449;SDS011;29041;42.266;23.110;2023-04-09T05:09:32;18.45;;;8.75;;
43449;SDS011;29041;42.266;23.110;2023-04-09T05:12:19;15.85;;;9.05;;
43449;SDS011;29041;42.266;23.110;2023-04-09T05:15:06;16.35;;;8.27;;
43449;SDS011;29041;42.266;23.110;2023-04-09T05:17:53;18.13;;;8.32;;
43449;SDS011;29041;42.266;23.110;2023-04-09T05:20:40;18.02;;;9.30;;
43449;SDS011;29041;42.266;23.110;2023-04-09T05:23:27;19.85;;;9.38;;
43449;SDS011;29041;42.266;23.110;2023-04-09T05:26:16;20.75;;;10.30;;
43449;SDS011;29041;42.266;23.110;2023-04-09T05:29:03;14.82;;;8.60;;
43449;SDS011;29041;42.266;23.110;2023-04-09T05:31:50;18.67;;;8.73;;
43449;SDS011;29041;42.266;23.110;2023-04-09T05:34:36;15.25;;;8.68;;
43449;SDS011;29041;42.266;23.110;2023-04-09T05:37:24;14.23;;;8.63;;
43449;SDS011;29041;42.266;23.110;2023-04-09T05:40:11;16.02;;;8.45;;
43449;SDS011;29041;42.266;23.110;2023-04-09T05:43:00;16.35;;;9.52;;
43449;SDS011;29041;42.266;23.110;2023-04-09T05:45:47;20.90;;;9.32;;
43449;SDS011;29041;42.266;23.110;2023-04-09T05:48:34;27.00;;;13.27;;
43449;SDS011;29041;42.266;23.110;2023-04-09T05:51:21;27.30;;;14.50;;
43449;SDS011;29041;42.266;23.110;2023-04-09T05:54:09;19.30;;;11.60;;
43449;SDS011;29041;42.266;23.110;2023-04-09T05:56:56;22.35;;;11.35;;
43449;SDS011;29041;42.266;23.110;2023-04-09T05:59:44;21.85;;;11.93;;
43449;SDS011;29041;42.266;23.110;2023-04-09T06:02:31;22.13;;;12.90;;
43449;SDS011;29041;42.266;23.110;2023-04-09T06:05:18;18.15;;;9.30;;
43449;SDS011;29041;42.266;23.110;2023-04-09T06:08:05;16.70;;;9.80;;
43449;SDS011;29041;42.266;23.110;2023-04-09T06:10:52;18.45;;;10.82;;
43449;SDS011;29041;42.266;23.110;2023-04-09T06:13:39;21.80;;;14.88;;
43449;SDS011;29041;42.266;23.110;2023-04-09T06:16:27;19.60;;;10.70;;
43449;SDS011;29041;42.266;23.110;2023-04-09T06:19:14;22.83;;;11.75;;
43449;SDS011;29041;42.266;23.110;2023-04-09T06:22:02;17.20;;;9.02;;
43449;SDS011;29041;42.266;23.110;2023-04-09T06:24:49;17.10;;;8.82;;
43449;SDS011;29041;42.266;23.110;2023-04-09T06:27:35;22.02;;;11.52;;
43449;SDS011;29041;42.266;23.110;2023-04-09T06:30:22;19.13;;;11.15;;
43449;SDS011;29041;42.266;23.110;2023-04-09T06:33:11;19.63;;;9.50;;
43449;SDS011;29041;42.266;23.110;2023-04-09T06:35:58;24.92;;;10.27;;
43449;SDS011;29041;42.266;23.110;2023-04-09T06:38:55;23.85;;;11.68;;
43449;SDS011;29041;42.266;23.110;2023-04-09T06:41:43;16.17;;;10.00;;
43449;SDS011;29041;42.266;23.110;2023-04-09T06:44:32;16.58;;;9.63;;
43449;SDS011;29041;42.266;23.110;2023-04-09T06:47:19;22.17;;;10.38;;
43449;SDS011;29041;42.266;23.110;2023-04-09T06:50:08;17.40;;;9.30;;
43449;SDS011;29041;42.266;23.110;2023-04-09T06:52:55;29.58;;;12.07;;
43449;SDS011;29041;42.266;23.110;2023-04-09T06:55:43;55.83;;;20.35;;
43449;SDS011;29041;42.266;23.110;2023-04-09T06:58:30;25.88;;;13.02;;
43449;SDS011;29041;42.266;23.110;2023-04-09T07:01:17;17.13;;;9.20;;
43449;SDS011;29041;42.266;23.110;2023-04-09T07:04:04;14.13;;;6.88;;
43449;SDS011;29041;42.266;23.110;2023-04-09T07:06:52;18.88;;;9.25;;
43449;SDS011;29041;42.266;23.110;2023-04-09T07:09:41;12.18;;;7.28;;
43449;SDS011;29041;42.266;23.110;2023-04-09T07:12:29;8.15;;;5.05;;
43449;SDS011;29041;42.266;23.110;2023-04-09T07:15:16;9.05;;;5.38;;
43449;SDS011;29041;42.266;23.110;2023-04-09T07:18:03;7.47;;;4.97;;
43449;SDS011;29041;42.266;23.110;2023-04-09T07:20:52;7.13;;;4.78;;
43449;SDS011;29041;42.266;23.110;2023-04-09T07:23:41;8.95;;;5.20;;
43449;SDS011;29041;42.266;23.110;2023-04-09T07:26:31;7.63;;;5.03;;
43449;SDS011;29041;42.266;23.110;2023-04-09T07:29:28;12.75;;;8.85;;
43449;SDS011;29041;42.266;23.110;2023-04-09T07:32:15;9.85;;;5.57;;
43449;SDS011;29041;42.266;23.110;2023-04-09T07:35:02;8.35;;;5.20;;
43449;SDS011;29041;42.266;23.110;2023-04-09T07:37:57;9.23;;;5.10;;
43449;SDS011;29041;42.266;23.110;2023-04-09T07:40:47;6.05;;;3.67;;
43449;SDS011;29041;42.266;23.110;2023-04-09T07:43:37;9.38;;;5.43;;
43449;SDS011;29041;42.266;23.110;2023-04-09T07:46:42;8.82;;;3.58;;
43449;SDS011;29041;42.266;23.110;2023-04-09T07:49:29;8.00;;;4.50;;
43449;SDS011;29041;42.266;23.110;2023-04-09T07:52:16;6.68;;;4.28;;
43449;SDS011;29041;42.266;23.110;2023-04-09T07:55:04;5.43;;;3.22;;
43449;SDS011;29041;42.266;23.110;2023-04-09T07:57:52;8.85;;;4.03;;
43449;SDS011;29041;42.266;23.110;2023-04-09T08:00:39;6.55;;;3.47;;
43449;SDS011;29041;42.266;23.110;2023-04-09T08:03:26;6.07;;;3.92;;
43449;SDS011;29041;42.266;23.110;2023-04-09T08:06:13;5.43;;;3.30;;
43449;SDS011;29041;42.266;23.110;2023-04-09T08:09:00;5.20;;;3.70;;
43449;SDS011;29041;42.266;23.110;2023-04-09T08:11:47;6.32;;;3.45;;
43449;SDS011;29041;42.266;23.110;2023-04-09T08:14:35;7.55;;;4.13;;
43449;SDS011;29041;42.266;23.110;2023-04-09T08:17:22;5.40;;;3.15;;
43449;SDS011;29041;42.266;23.110;2023-04-09T08:20:16;4.45;;;3.00;;
43449;SDS011;29041;42.266;23.110;2023-04-09T08:23:03;7.15;;;4.25;;
43449;SDS011;29041;42.266;23.110;2023-04-09T08:25:50;6.53;;;3.90;;
43449;SDS011;29041;42.266;23.110;2023-04-09T08:28:37;6.50;;;3.40;;
43449;SDS011;29041;42.266;23.110;2023-04-09T08:31:25;5.13;;;3.15;;
43449;SDS011;29041;42.266;23.110;2023-04-09T08:34:12;5.25;;;3.72;;
43449;SDS011;29041;42.266;23.110;2023-04-09T08:37:02;4.85;;;3.47;;
43449;SDS011;29041;42.266;23.110;2023-04-09T08:39:49;6.28;;;3.95;;
43449;SDS011;29041;42.266;23.110;2023-04-09T08:42:37;5.13;;;3.83;;
43449;SDS011;29041;42.266;23.110;2023-04-09T08:45:24;5.40;;;3.50;;
43449;SDS011;29041;42.266;23.110;2023-04-09T08:48:13;7.53;;;3.72;;
43449;SDS011;29041;42.266;23.110;2023-04-09T08:51:00;6.60;;;4.13;;
43449;SDS011;29041;42.266;23.110;2023-04-09T08:53:48;6.30;;;4.13;;
43449;SDS011;29041;42.266;23.110;2023-04-09T08:56:37;6.55;;;3.90;;
43449;SDS011;29041;42.266;23.110;2023-04-09T08:59:24;10.00;;;5.50;;
43449;SDS011;29041;42.266;23.110;2023-04-09T09:02:11;5.82;;;3.35;;
43449;SDS011;29041;42.266;23.110;2023-04-09T09:04:59;5.75;;;3.60;;
43449;SDS011;29041;42.266;23.110;2023-04-09T09:07:51;5.85;;;3.60;;
43449;SDS011;29041;42.266;23.110;2023-04-09T09:10:40;5.87;;;2.83;;
43449;SDS011;29041;42.266;23.110;2023-04-09T09:13:27;7.43;;;4.32;;
43449;SDS011;29041;42.266;23.110;2023-04-09T09:16:14;6.45;;;3.45;;
43449;SDS011;29041;42.266;23.110;2023-04-09T09:19:02;6.60;;;4.40;;
43449;SDS011;29041;42.266;23.110;2023-04-09T09:21:55;5.93;;;3.95;;
43449;SDS011;29041;42.266;23.110;2023-04-09T09:24:45;7.10;;;4.18;;
43449;SDS011;29041;42.266;23.110;2023-04-09T09:27:34;6.20;;;3.33;;
43449;SDS011;29041;42.266;23.110;2023-04-09T09:30:24;6.72;;;4.10;;
43449;SDS011;29041;42.266;23.110;2023-04-09T09:33:14;6.25;;;3.42;;
43449;SDS011;29041;42.266;23.110;2023-04-09T09:36:01;7.88;;;3.92;;
43449;SDS011;29041;42.266;23.110;2023-04-09T09:38:54;7.25;;;3.85;;
43449;SDS011;29041;42.266;23.110;2023-04-09T09:41:41;7.45;;;4.85;;
43449;SDS011;29041;42.266;23.110;2023-04-09T09:44:29;7.75;;;5.50;;
43449;SDS011;29041;42.266;23.110;2023-04-09T09:47:16;9.35;;;5.35;;
43449;SDS011;29041;42.266;23.110;2023-04-09T09:50:04;6.28;;;4.80;;
43449;SDS011;29041;42.266;23.110;2023-04-09T09:52:53;8.60;;;6.15;;
43449;SDS011;29041;42.266;23.110;2023-04-09T09:55:47;11.35;;;6.28;;
43449;SDS011;29041;42.266;23.110;2023-04-09T09:58:35;10.88;;;5.60;;
43449;SDS011;29041;42.266;23.110;2023-04-09T10:01:25;8.48;;;4.95;;
43449;SDS011;29041;42.266;23.110;2023-04-09T10:04:21;10.48;;;6.18;;
43449;SDS011;29041;42.266;23.110;2023-04-09T10:07:09;9.77;;;5.45;;
43449;SDS011;29041;42.266;23.110;2023-04-09T10:09:56;7.70;;;4.68;;
43449;SDS011;29041;42.266;23.110;2023-04-09T10:12:45;9.75;;;6.60;;
43449;SDS011;29041;42.266;23.110;2023-04-09T10:15:32;9.85;;;5.90;;
43449;SDS011;29041;42.266;23.110;2023-04-09T10:18:19;11.63;;;5.30;;
43449;SDS011;29041;42.266;23.110;2023-04-09T10:21:08;13.55;;;5.10;;
43449;SDS011;29041;42.266;23.110;2023-04-09T10:23:58;9.40;;;5.75;;
43449;SDS011;29041;42.266;23.110;2023-04-09T10:26:50;12.13;;;5.10;;
43449;SDS011;29041;42.266;23.110;2023-04-09T10:29:44;6.30;;;4.15;;
43449;SDS011;29041;42.266;23.110;2023-04-09T10:32:33;17.70;;;5.78;;
43449;SDS011;29041;42.266;23.110;2023-04-09T10:35:24;9.07;;;5.75;;
43449;SDS011;29041;42.266;23.110;2023-04-09T10:38:12;7.38;;;4.93;;
43449;SDS011;29041;42.266;23.110;2023-04-09T10:41:05;10.63;;;5.20;;
43449;SDS011;29041;42.266;23.110;2023-04-09T10:43:52;8.00;;;4.38;;
43449;SDS011;29041;42.266;23.110;2023-04-09T10:46:40;8.35;;;4.70;;
43449;SDS011;29041;42.266;23.110;2023-04-09T10:49:30;6.72;;;4.18;;
43449;SDS011;29041;42.266;23.110;2023-04-09T10:55:07;10.63;;;4.90;;
43449;SDS011;29041;42.266;23.110;2023-04-09T10:57:54;7.28;;;4.22;;
43449;SDS011;29041;42.266;23.110;2023-04-09T11:00:42;10.98;;;5.00;;
43449;SDS011;29041;42.266;23.110;2023-04-09T11:03:30;8.20;;;4.65;;
43449;SDS011;29041;42.266;23.110;2023-04-09T11:06:19;9.35;;;5.05;;
43449;SDS011;29041;42.266;23.110;2023-04-09T11:09:06;7.15;;;5.07;;
43449;SDS011;29041;42.266;23.110;2023-04-09T11:11:53;10.27;;;4.47;;
43449;SDS011;29041;42.266;23.110;2023-04-09T11:14:41;6.80;;;4.88;;
43449;SDS011;29041;42.266;23.110;2023-04-09T11:17:28;8.07;;;5.32;;
43449;SDS011;29041;42.266;23.110;2023-04-09T11:20:18;6.30;;;4.15;;
43449;SDS011;29041;42.266;23.110;2023-04-09T11:23:05;7.00;;;4.25;;
43449;SDS011;29041;42.266;23.110;2023-04-09T11:25:52;7.40;;;4.65;;
43449;SDS011;29041;42.266;23.110;2023-04-09T11:28:41;6.03;;;4.25;;
43449;SDS011;29041;42.266;23.110;2023-04-09T11:31:28;7.78;;;5.35;;
43449;SDS011;29041;42.266;23.110;2023-04-09T11:34:15;8.90;;;5.18;;
43449;SDS011;29041;42.266;23.110;2023-04-09T11:37:05;9.40;;;5.40;;
43449;SDS011;29041;42.266;23.110;2023-04-09T11:39:54;10.30;;;5.57;;
43449;SDS011;29041;42.266;23.110;2023-04-09T11:42:42;11.70;;;5.90;;
43449;SDS011;29041;42.266;23.110;2023-04-09T11:45:30;8.75;;;4.80;;
43449;SDS011;29041;42.266;23.110;2023-04-09T11:48:17;10.52;;;5.75;;
43449;SDS011;29041;42.266;23.110;2023-04-09T11:51:06;10.95;;;4.80;;
43449;SDS011;29041;42.266;23.110;2023-04-09T11:53:54;10.38;;;4.82;;
43449;SDS011;29041;42.266;23.110;2023-04-09T11:56:41;9.50;;;6.45;;
43449;SDS011;29041;42.266;23.110;2023-04-09T11:59:28;13.70;;;5.20;;
43449;SDS011;29041;42.266;23.110;2023-04-09T12:02:16;11.27;;;6.43;;
43449;SDS011;29041;42.266;23.110;2023-04-09T12:05:03;16.90;;;6.00;;
43449;SDS011;29041;42.266;23.110;2023-04-09T12:07:50;16.23;;;6.28;;
43449;SDS011;29041;42.266;23.110;2023-04-09T12:10:39;11.50;;;5.43;;
43449;SDS011;29041;42.266;23.110;2023-04-09T12:13:31;12.30;;;5.18;;
43449;SDS011;29041;42.266;23.110;2023-04-09T12:16:18;13.80;;;5.70;;
43449;SDS011;29041;42.266;23.110;2023-04-09T12:19:06;8.40;;;4.97;;
43449;SDS011;29041;42.266;23.110;2023-04-09T12:21:53;11.65;;;4.90;;
43449;SDS011;29041;42.266;23.110;2023-04-09T12:24:42;7.60;;;4.97;;
43449;SDS011;29041;42.266;23.110;2023-04-09T12:27:31;9.45;;;5.15;;
43449;SDS011;29041;42.266;23.110;2023-04-09T12:30:19;7.68;;;4.63;;
43449;SDS011;29041;42.266;23.110;2023-04-09T12:33:06;8.77;;;4.80;;
43449;SDS011;29041;42.266;23.110;2023-04-09T12:35:53;7.82;;;5.20;;
43449;SDS011;29041;42.266;23.110;2023-04-09T12:38:45;18.08;;;12.63;;
43449;SDS011;29041;42.266;23.110;2023-04-09T12:41:32;7.30;;;4.68;;
43449;SDS011;29041;42.266;23.110;2023-04-09T12:44:20;7.22;;;4.72;;
43449;SDS011;29041;42.266;23.110;2023-04-09T12:47:07;13.38;;;7.68;;
43449;SDS011;29041;42.266;23.110;2023-04-09T12:49:54;7.45;;;4.40;;
43449;SDS011;29041;42.266;23.110;2023-04-09T12:52:41;9.02;;;5.45;;
43449;SDS011;29041;42.266;23.110;2023-04-09T12:55:28;8.90;;;4.90;;
43449;SDS011;29041;42.266;23.110;2023-04-09T12:58:15;8.40;;;5.20;;
43449;SDS011;29041;42.266;23.110;2023-04-09T13:01:03;7.85;;;5.28;;
43449;SDS011;29041;42.266;23.110;2023-04-09T13:03:50;9.82;;;5.65;;
43449;SDS011;29041;42.266;23.110;2023-04-09T13:06:37;6.43;;;4.22;;
43449;SDS011;29041;42.266;23.110;2023-04-09T13:09:24;6.88;;;4.80;;
43449;SDS011;29041;42.266;23.110;2023-04-09T13:12:12;13.45;;;5.85;;
43449;SDS011;29041;42.266;23.110;2023-04-09T13:14:59;14.25;;;7.47;;
43449;SDS011;29041;42.266;23.110;2023-04-09T13:17:48;11.77;;;6.25;;
43449;SDS011;29041;42.266;23.110;2023-04-09T13:20:35;11.68;;;7.07;;
43449;SDS011;29041;42.266;23.110;2023-04-09T13:23:22;10.18;;;6.25;;
43449;SDS011;29041;42.266;23.110;2023-04-09T13:26:08;9.30;;;5.38;;
43449;SDS011;29041;42.266;23.110;2023-04-09T13:28:55;10.32;;;6.47;;
43449;SDS011;29041;42.266;23.110;2023-04-09T13:31:43;9.88;;;6.03;;
43449;SDS011;29041;42.266;23.110;2023-04-09T13:34:31;9.20;;;5.28;;
43449;SDS011;29041;42.266;23.110;2023-04-09T13:37:18;8.38;;;5.35;;
43449;SDS011;29041;42.266;23.110;2023-04-09T13:40:05;9.60;;;6.40;;
43449;SDS011;29041;42.266;23.110;2023-04-09T13:42:53;7.75;;;5.90;;
43449;SDS011;29041;42.266;23.110;2023-04-09T13:45:40;7.05;;;4.50;;
43449;SDS011;29041;42.266;23.110;2023-04-09T13:48:27;11.82;;;4.97;;
43449;SDS011;29041;42.266;23.110;2023-04-09T13:51:15;7.80;;;5.13;;
43449;SDS011;29041;42.266;23.110;2023-04-09T13:59:32;14.30;;;6.13;;
43449;SDS011;29041;42.266;23.110;2023-04-09T14:02:19;12.40;;;6.10;;
43449;SDS011;29041;42.266;23.110;2023-04-09T14:05:10;11.30;;;6.22;;
43449;SDS011;29041;42.266;23.110;2023-04-09T14:07:58;11.63;;;6.22;;
43449;SDS011;29041;42.266;23.110;2023-04-09T14:10:46;12.02;;;6.88;;
43449;SDS011;29041;42.266;23.110;2023-04-09T14:13:33;10.98;;;6.50;;
43449;SDS011;29041;42.266;23.110;2023-04-09T14:16:19;23.60;;;11.13;;
43449;SDS011;29041;42.266;23.110;2023-04-09T14:19:06;15.63;;;7.57;;
43449;SDS011;29041;42.266;23.110;2023-04-09T14:21:54;25.80;;;11.70;;
43449;SDS011;29041;42.266;23.110;2023-04-09T14:24:43;10.05;;;6.30;;
43449;SDS011;29041;42.266;23.110;2023-04-09T14:27:30;10.43;;;6.47;;
43449;SDS011;29041;42.266;23.110;2023-04-09T14:30:17;9.35;;;5.38;;
43449;SDS011;29041;42.266;23.110;2023-04-09T14:33:05;11.25;;;6.18;;
43449;SDS011;29041;42.266;23.110;2023-04-09T14:35:52;9.05;;;5.45;;
43449;SDS011;29041;42.266;23.110;2023-04-09T14:38:39;14.88;;;5.60;;
43449;SDS011;29041;42.266;23.110;2023-04-09T14:41:27;10.80;;;5.93;;
43449;SDS011;29041;42.266;23.110;2023-04-09T14:44:14;9.40;;;4.43;;
43449;SDS011;29041;42.266;23.110;2023-04-09T14:47:01;13.93;;;6.90;;
43449;SDS011;29041;42.266;23.110;2023-04-09T14:49:48;11.55;;;6.18;;
43449;SDS011;29041;42.266;23.110;2023-04-09T14:52:34;12.20;;;6.25;;
43449;SDS011;29041;42.266;23.110;2023-04-09T14:55:21;14.18;;;7.18;;
43449;SDS011;29041;42.266;23.110;2023-04-09T14:58:11;8.95;;;5.97;;
43449;SDS011;29041;42.266;23.110;2023-04-09T15:00:58;11.77;;;6.05;;
43449;SDS011;29041;42.266;23.110;2023-04-09T15:03:45;11.63;;;5.28;;
43449;SDS011;29041;42.266;23.110;2023-04-09T15:06:32;14.18;;;6.28;;
43449;SDS011;29041;42.266;23.110;2023-04-09T15:09:19;8.82;;;4.57;;
43449;SDS011;29041;42.266;23.110;2023-04-09T15:12:06;17.05;;;6.85;;
43449;SDS011;29041;42.266;23.110;2023-04-09T15:14:55;17.73;;;7.30;;
43449;SDS011;29041;42.266;23.110;2023-04-09T15:17:42;13.88;;;5.90;;
43449;SDS011;29041;42.266;23.110;2023-04-09T15:20:29;10.30;;;5.30;;
43449;SDS011;29041;42.266;23.110;2023-04-09T15:23:15;11.98;;;5.88;;
43449;SDS011;29041;42.266;23.110;2023-04-09T15:26:02;12.75;;;5.95;;
43449;SDS011;29041;42.266;23.110;2023-04-09T15:28:49;10.55;;;4.65;;
43449;SDS011;29041;42.266;23.110;2023-04-09T15:31:39;11.85;;;5.65;;
43449;SDS011;29041;42.266;23.110;2023-04-09T15:34:26;10.82;;;5.82;;
43449;SDS011;29041;42.266;23.110;2023-04-09T15:37:13;9.10;;;5.10;;
43449;SDS011;29041;42.266;23.110;2023-04-09T15:39:59;10.07;;;5.03;;
43449;SDS011;29041;42.266;23.110;2023-04-09T15:42:48;9.38;;;5.07;;
43449;SDS011;29041;42.266;23.110;2023-04-09T15:45:35;8.18;;;4.38;;
43449;SDS011;29041;42.266;23.110;2023-04-09T15:48:23;7.72;;;5.63;;
43449;SDS011;29041;42.266;23.110;2023-04-09T15:51:10;8.38;;;4.20;;
43449;SDS011;29041;42.266;23.110;2023-04-09T15:53:58;34.15;;;14.15;;
43449;SDS011;29041;42.266;23.110;2023-04-09T15:56:45;13.13;;;6.72;;
43449;SDS011;29041;42.266;23.110;2023-04-09T15:59:31;14.45;;;7.70;;
43449;SDS011;29041;42.266;23.110;2023-04-09T16:02:18;24.85;;;11.90;;
43449;SDS011;29041;42.266;23.110;2023-04-09T16:05:07;27.92;;;13.77;;
43449;SDS011;29041;42.266;23.110;2023-04-09T16:07:54;15.50;;;8.02;;
43449;SDS011;29041;42.266;23.110;2023-04-09T16:10:41;11.75;;;6.95;;
43449;SDS011;29041;42.266;23.110;2023-04-09T16:13:28;13.55;;;8.15;;
43449;SDS011;29041;42.266;23.110;2023-04-09T16:16:15;15.90;;;7.18;;
43449;SDS011;29041;42.266;23.110;2023-04-09T16:19:03;18.83;;;9.13;;
43449;SDS011;29041;42.266;23.110;2023-04-09T16:21:51;20.38;;;10.73;;
43449;SDS011;29041;42.266;23.110;2023-04-09T16:24:38;13.73;;;7.55;;
43449;SDS011;29041;42.266;23.110;2023-04-09T16:27:25;14.70;;;7.40;;
43449;SDS011;29041;42.266;23.110;2023-04-09T16:30:12;15.02;;;6.97;;
43449;SDS011;29041;42.266;23.110;2023-04-09T16:32:59;18.40;;;11.23;;
43449;SDS011;29041;42.266;23.110;2023-04-09T16:35:46;19.65;;;10.75;;
43449;SDS011;29041;42.266;23.110;2023-04-09T16:38:35;25.92;;;10.52;;